메인 페이지
METAR-TAF:

METAR-TAF

공항 :

코스라에 국제공항

코스라에 섬, 미크로네시아

위도: 05-21N, 경도: 162-57E, 고도: 3m

현재 날씨관측

예보는 15 시간 26분 전, 23:50시(UTC)에 발표되었습니다.
서북서19kt
온도 28°C
습도 84%
기압 1011 hPa
시정: 16.1km
고도 1700ft 상공 구름 많음, 적란운.
고도 13000ft 상공 구름 많음
고도 30000ft 상공 흐림
시계 내 소나기

METAR: PTSA 142350Z 30019KT 10SM VCSH BKN017CB BKN130 OVC300 28/25 A2986 RMK VCSH NE CB W-NE MOV E LAST

시각: 02:16 (15:16 UTC)

예보

예보는 15 시간 53분 전, 23:23시(UTC)에 발표되었습니다.
예보 대상 시간: 15일 00시부터 15일 24시까지 (UTC)
11kt
시정: 10km
고도 1900ft 상공 구름 보통
고도 4000ft 상공 구름 보통
고도 13000ft 상공 구름 많음
시계 내 소나기
일시적
15일 00시부터 15일 04시까지 (UTC)
시정: 8.0km
고도 1500ft 상공 구름 보통
고도 2000ft 상공 구름 많음
소나기

TAF: PTSA 142323Z 1500/1524 28011KT P6SM VCSH SCT019 SCT040 BKN130 TEMPO 1500/1504 5SM SHRA SCT015 BKN020

4,000개 이상의 공항 관측 자료 및 예보 (METAR 및 TAF 보고).

지도상에서 검색 가능한 기상관측소가 노란 점과 빨간 점으로 표시되어 있습니다.

기상관측소 명을 보려면 표시 위로 마우스를 이동하세요.

날씨 관측과 예보를 보려면 클릭하세요.

지도 변경 : 확대하려면 엑스 표시가 있는 녹색 버튼, 축소하려면 빼기 표시가 있는 녹색 버튼, 다음 페이지의 지도를 보려면 녹색 화살표를 클릭하세요.


METAR-TAF: